Time;durP1;ratioP1;P1;durP2;ratioP2;P2;SDS_P1;SDS_P2;PMS_P1;PMS_P2;Temp;Humidity;BMP_temperature;BMP_pressure;BME280_temperature;BME280_humidity;BME280_pressure;Samples;Min_cycle;Max_cycle;Signal;HPM_P1;HPM_P2
2022/02/25 00:01:32;;;;;;;1.23;1.00;;;;;;;;;;5012704;28;20400;-72
2022/02/25 00:03:58;;;;;;;2.33;1.38;;;;;;;;;;4994244;28;20065;-72
2022/02/25 00:06:24;;;;;;;9.65;4.30;;;;;;;;;;5012557;28;20022;-72
2022/02/25 00:08:50;;;;;;;15.85;6.78;;;;;;;;;;5012586;28;20022;-72
2022/02/25 00:11:16;;;;;;;12.63;5.45;;;;;;;;;;4994634;28;20037;-71
2022/02/25 00:13:42;;;;;;;19.98;7.18;;;;;;;;;;5011817;28;20041;-71
2022/02/25 00:16:08;;;;;;;6.40;2.75;;;;;;;;;;5012324;28;20577;-71
2022/02/25 00:18:34;;;;;;;6.57;2.70;;;;;;;;;;5012371;28;20068;-73
2022/02/25 00:21:00;;;;;;;6.47;2.40;;;;;;;;;;4994534;28;20036;-73
2022/02/25 00:23:26;;;;;;;8.50;3.17;;;;;;;;;;5010857;28;20088;-71
2022/02/25 00:25:52;;;;;;;7.60;4.03;;;;;;;;;;5012059;28;20121;-71
2022/02/25 00:28:18;;;;;;;7.53;4.03;;;;;;;;;;5012312;28;20026;-73
2022/02/25 00:30:44;;;;;;;2.97;1.85;;;;;;;;;;5012402;28;20480;-73
2022/02/25 00:33:11;;;;;;;6.60;2.70;;;;;;;;;;5011489;28;20412;-73
2022/02/25 00:35:37;;;;;;;10.18;3.80;;;;;;;;;;5011993;28;20483;-71
2022/02/25 00:38:04;;;;;;;13.10;4.82;;;;;;;;;;5012257;28;20079;-72
2022/02/25 00:40:30;;;;;;;7.47;3.45;;;;;;;;;;5012272;28;20529;-71
2022/02/25 00:42:55;;;;;;;5.03;2.95;;;;;;;;;;5011669;28;20041;-71
2022/02/25 00:45:22;;;;;;;10.23;4.53;;;;;;;;;;5011650;28;20026;-70
2022/02/25 00:47:47;;;;;;;9.50;4.95;;;;;;;;;;5011905;28;20480;-70
2022/02/25 00:50:14;;;;;;;8.13;5.03;;;;;;;;;;4994207;28;20029;-71
2022/02/25 00:52:40;;;;;;;27.80;12.80;;;;;;;;;;5011667;28;20022;-70
2022/02/25 00:55:06;;;;;;;8.50;4.00;;;;;;;;;;5011163;28;20033;-72
2022/02/25 00:57:32;;;;;;;7.20;3.75;;;;;;;;;;5012024;28;20067;-71
2022/02/25 00:59:58;;;;;;;20.35;6.28;;;;;;;;;;5011747;28;20057;-72
2022/02/25 01:02:24;;;;;;;17.08;7.78;;;;;;;;;;5011841;28;20314;-71
2022/02/25 01:04:50;;;;;;;7.47;4.13;;;;;;;;;;5011049;28;20022;-72
2022/02/25 01:07:16;;;;;;;14.02;6.43;;;;;;;;;;5011657;28;20042;-73
2022/02/25 01:09:42;;;;;;;4.55;3.30;;;;;;;;;;5011805;28;20021;-72
2022/02/25 01:12:08;;;;;;;6.15;3.55;;;;;;;;;;5011943;28;20022;-72
2022/02/25 01:14:35;;;;;;;7.22;3.88;;;;;;;;;;5010705;28;20057;-71
2022/02/25 01:17:01;;;;;;;9.60;4.10;;;;;;;;;;5011631;28;20033;-71
2022/02/25 01:19:26;;;;;;;7.28;4.13;;;;;;;;;;5011757;28;20384;-71
2022/02/25 01:21:53;;;;;;;11.65;5.10;;;;;;;;;;4994087;28;20373;-73
2022/02/25 01:24:20;;;;;;;11.02;5.10;;;;;;;;;;5010885;28;20038;-73
2022/02/25 01:26:45;;;;;;;12.82;5.93;;;;;;;;;;5011547;28;20116;-72
2022/02/25 01:29:11;;;;;;;6.28;3.00;;;;;;;;;;5011479;28;20061;-71
2022/02/25 01:31:38;;;;;;;4.97;2.42;;;;;;;;;;5011624;28;20022;-73
2022/02/25 01:34:04;;;;;;;12.13;4.80;;;;;;;;;;5008688;28;20129;-71
2022/02/25 01:36:30;;;;;;;8.95;4.93;;;;;;;;;;5014860;28;20037;-72
2022/02/25 01:39:02;;;;;;;12.88;5.28;;;;;;;;;;5015083;28;20037;-73
2022/02/25 01:41:28;;;;;;;7.55;3.75;;;;;;;;;;5015383;28;20034;-70
2022/02/25 01:44:10;;;;;;;13.32;5.85;;;;;;;;;;4996866;28;20040;-73
2022/02/25 01:46:36;;;;;;;9.60;3.50;;;;;;;;;;5015144;28;20244;-72
2022/02/25 01:49:02;;;;;;;9.80;4.47;;;;;;;;;;5014975;28;20053;-71
2022/02/25 01:51:28;;;;;;;10.30;5.03;;;;;;;;;;5014962;28;20022;-70
2022/02/25 01:53:53;;;;;;;12.02;4.70;;;;;;;;;;5014290;28;20464;-72
2022/02/25 01:56:20;;;;;;;7.90;4.18;;;;;;;;;;5014871;28;20030;-72
2022/02/25 01:58:46;;;;;;;21.40;8.10;;;;;;;;;;5015087;28;20026;-72
2022/02/25 02:01:12;;;;;;;5.25;3.20;;;;;;;;;;5014627;28;20080;-70
2022/02/25 02:03:38;;;;;;;12.98;5.05;;;;;;;;;;5014198;28;20262;-71
2022/02/25 02:06:07;;;;;;;6.75;2.72;;;;;;;;;;5014492;28;20088;-71
2022/02/25 02:08:33;;;;;;;8.18;3.83;;;;;;;;;;5014752;28;20026;-71
2022/02/25 02:10:59;;;;;;;10.32;4.40;;;;;;;;;;5014675;28;20034;-72
2022/02/25 02:13:25;;;;;;;8.48;4.10;;;;;;;;;;5013876;28;20100;-72
2022/02/25 02:15:51;;;;;;;4.97;2.40;;;;;;;;;;4997146;28;20037;-72
2022/02/25 02:18:17;;;;;;;7.22;3.58;;;;;;;;;;5014671;28;20033;-73
2022/02/25 02:20:43;;;;;;;7.18;3.30;;;;;;;;;;5014475;28;20049;-72
2022/02/25 02:23:09;;;;;;;8.50;4.28;;;;;;;;;;5013759;28;20037;-71
2022/02/25 02:25:35;;;;;;;7.75;3.10;;;;;;;;;;5014131;28;20030;-72
2022/02/25 02:28:21;;;;;;;7.88;3.47;;;;;;;;;;5014307;28;20076;-71
2022/02/25 02:30:48;;;;;;;7.60;3.80;;;;;;;;;;4996656;28;20109;-73
2022/02/25 02:33:14;;;;;;;10.77;5.47;;;;;;;;;;4995705;28;20092;-71
2022/02/25 02:35:40;;;;;;;6.20;3.00;;;;;;;;;;5013978;28;20042;-71
2022/02/25 02:38:06;;;;;;;3.95;2.50;;;;;;;;;;5014439;28;20029;-71
2022/02/25 02:40:32;;;;;;;11.43;5.45;;;;;;;;;;5014146;28;20467;-72
2022/02/25 02:42:58;;;;;;;5.35;3.22;;;;;;;;;;5013463;28;20026;-72
2022/02/25 02:45:24;;;;;;;10.52;3.90;;;;;;;;;;5013578;28;20030;-71
2022/02/25 02:47:50;;;;;;;8.43;4.13;;;;;;;;;;4995408;28;20049;-71
2022/02/25 02:50:16;;;;;;;6.60;3.67;;;;;;;;;;5013933;28;20022;-73
2022/02/25 02:52:42;;;;;;;4.78;3.00;;;;;;;;;;5013689;28;20113;-72
2022/02/25 02:55:08;;;;;;;5.50;2.85;;;;;;;;;;5013281;28;20472;-71
2022/02/25 02:57:34;;;;;;;4.78;2.63;;;;;;;;;;5013818;28;20491;-72
2022/02/25 03:00:00;;;;;;;4.35;2.28;;;;;;;;;;5013683;28;20114;-72
2022/02/25 03:02:26;;;;;;;6.90;2.70;;;;;;;;;;5013616;28;20479;-71
2022/02/25 03:04:52;;;;;;;2.15;1.92;;;;;;;;;;5012936;28;20083;-73
2022/02/25 03:07:18;;;;;;;5.80;3.28;;;;;;;;;;5013415;28;20468;-72
2022/02/25 03:09:44;;;;;;;4.72;2.63;;;;;;;;;;5013640;28;20037;-74
2022/02/25 03:12:10;;;;;;;13.27;5.63;;;;;;;;;;5013639;28;20030;-72
2022/02/25 03:14:36;;;;;;;7.00;3.90;;;;;;;;;;5012885;28;20349;-71
2022/02/25 03:17:03;;;;;;;4.43;2.95;;;;;;;;;;5013213;28;20117;-72
2022/02/25 03:19:29;;;;;;;6.18;3.65;;;;;;;;;;5013284;28;20500;-72
2022/02/25 03:21:55;;;;;;;8.90;3.92;;;;;;;;;;5013537;28;20053;-71
2022/02/25 03:24:21;;;;;;;4.05;2.50;;;;;;;;;;5012437;28;20112;-70
2022/02/25 03:26:47;;;;;;;11.85;3.70;;;;;;;;;;5013010;28;20029;-71
2022/02/25 03:29:13;;;;;;;10.80;4.10;;;;;;;;;;5012723;28;20057;-72
2022/02/25 03:31:39;;;;;;;6.88;3.95;;;;;;;;;;5012997;28;20033;-72
2022/02/25 03:34:05;;;;;;;8.13;4.47;;;;;;;;;;5004383;28;20057;-72
2022/02/25 03:36:31;;;;;;;9.88;5.25;;;;;;;;;;5048765;22;20036;-74
2022/02/25 03:38:57;;;;;;;7.20;3.60;;;;;;;;;;5092993;28;20491;-75
2022/02/25 03:41:23;;;;;;;5.95;3.53;;;;;;;;;;5092936;28;20101;-75
2022/02/25 03:43:49;;;;;;;5.13;3.05;;;;;;;;;;5074013;28;20386;-75
2022/02/25 03:46:15;;;;;;;6.25;4.10;;;;;;;;;;5092993;28;20032;-75
2022/02/25 03:48:41;;;;;;;8.15;3.65;;;;;;;;;;5093157;28;20040;-75
2022/02/25 03:51:07;;;;;;;7.18;3.40;;;;;;;;;;5092774;28;20024;-75
2022/02/25 03:53:33;;;;;;;6.45;3.30;;;;;;;;;;5092183;28;20058;-75
2022/02/25 03:55:58;;;;;;;12.40;6.15;;;;;;;;;;5092660;28;20035;-76
2022/02/25 03:58:24;;;;;;;4.00;2.80;;;;;;;;;;5074448;28;20119;-76
2022/02/25 04:00:50;;;;;;;5.95;3.50;;;;;;;;;;5074392;28;20477;-75
2022/02/25 04:03:16;;;;;;;7.03;4.32;;;;;;;;;;5092012;28;20451;-75
2022/02/25 04:05:42;;;;;;;5.88;3.85;;;;;;;;;;5092481;28;20035;-75
2022/02/25 04:08:08;;;;;;;6.50;3.15;;;;;;;;;;5092443;28;20025;-75
2022/02/25 04:10:35;;;;;;;5.30;3.63;;;;;;;;;;5092545;28;20039;-75
2022/02/25 04:13:01;;;;;;;7.43;4.82;;;;;;;;;;5091678;28;20036;-75
2022/02/25 04:15:27;;;;;;;14.80;7.55;;;;;;;;;;5092770;28;20020;-75
2022/02/25 04:17:53;;;;;;;4.88;3.55;;;;;;;;;;5092594;28;20027;-75
2022/02/25 04:20:19;;;;;;;7.60;4.03;;;;;;;;;;5093063;28;20027;-75
2022/02/25 04:22:45;;;;;;;7.38;4.70;;;;;;;;;;5073926;28;20016;-73
2022/02/25 04:25:11;;;;;;;10.25;5.13;;;;;;;;;;5092346;28;20489;-75
2022/02/25 04:27:37;;;;;;;12.80;5.88;;;;;;;;;;5092807;28;20039;-75
2022/02/25 04:30:05;;;;;;;9.93;4.97;;;;;;;;;;5092484;28;20113;-75
2022/02/25 04:32:31;;;;;;;6.72;4.32;;;;;;;;;;5092561;28;20062;-75
2022/02/25 04:34:57;;;;;;;10.10;5.05;;;;;;;;;;5091611;28;20056;-74
2022/02/25 04:37:23;;;;;;;9.00;5.00;;;;;;;;;;5092396;28;20032;-74
2022/02/25 04:39:49;;;;;;;9.25;5.50;;;;;;;;;;5092312;28;20062;-75
2022/02/25 04:42:15;;;;;;;10.15;4.78;;;;;;;;;;5092250;28;20056;-75
2022/02/25 04:44:41;;;;;;;7.78;4.78;;;;;;;;;;5090100;28;20077;-75
2022/02/25 04:47:07;;;;;;;8.45;4.57;;;;;;;;;;5069117;28;20107;-74
2022/02/25 04:49:33;;;;;;;8.65;3.58;;;;;;;;;;5053480;28;20025;-75
2022/02/25 04:51:59;;;;;;;13.13;6.03;;;;;;;;;;5071681;28;20043;-75
2022/02/25 04:54:25;;;;;;;8.30;4.20;;;;;;;;;;5071012;28;20451;-75
2022/02/25 04:56:51;;;;;;;7.53;3.53;;;;;;;;;;5071467;28;20094;-75
2022/02/25 04:59:17;;;;;;;13.43;5.43;;;;;;;;;;5071780;28;20028;-74
2022/02/25 05:01:46;;;;;;;9.05;4.25;;;;;;;;;;5071508;28;20059;-75
2022/02/25 05:04:12;;;;;;;5.53;3.40;;;;;;;;;;5070831;28;20049;-74
2022/02/25 05:06:38;;;;;;;8.35;3.85;;;;;;;;;;5053301;28;20158;-74
2022/02/25 05:09:04;;;;;;;10.75;5.40;;;;;;;;;;5071447;28;20024;-74
2022/02/25 05:11:30;;;;;;;7.00;4.07;;;;;;;;;;5075329;28;20463;-74
2022/02/25 05:13:56;;;;;;;11.48;4.90;;;;;;;;;;5056978;28;20032;-75
2022/02/25 05:21:52;;;;;;;7.68;5.07;;;;;;;;;;5075538;28;20425;-76
2022/02/25 05:24:18;;;;;;;7.25;4.05;;;;;;;;;;5074699;28;20125;-75
2022/02/25 05:26:44;;;;;;;6.65;3.47;;;;;;;;;;5075248;28;20031;-75
2022/02/25 05:29:10;;;;;;;7.65;3.85;;;;;;;;;;5057153;28;20406;-74
2022/02/25 05:31:36;;;;;;;7.93;4.10;;;;;;;;;;5075176;28;20017;-75
2022/02/25 05:34:02;;;;;;;6.95;3.97;;;;;;;;;;5074413;28;20059;-74
2022/02/25 05:36:28;;;;;;;6.30;3.97;;;;;;;;;;5056906;28;20470;-74
2022/02/25 05:38:55;;;;;;;8.80;4.07;;;;;;;;;;5074981;28;20028;-74
2022/02/25 05:41:21;;;;;;;10.43;5.13;;;;;;;;;;5075128;28;20044;-74
2022/02/25 05:43:47;;;;;;;12.43;5.22;;;;;;;;;;5056206;28;20466;-74
2022/02/25 05:46:14;;;;;;;7.45;4.68;;;;;;;;;;5074820;28;20099;-75
2022/02/25 05:48:40;;;;;;;11.77;4.93;;;;;;;;;;5074771;28;20017;-75
2022/02/25 05:51:06;;;;;;;7.82;4.43;;;;;;;;;;5074693;28;20031;-75
2022/02/25 05:53:32;;;;;;;8.50;4.38;;;;;;;;;;5056073;28;20028;-75
2022/02/25 05:55:59;;;;;;;10.98;5.88;;;;;;;;;;5075011;28;20078;-75
2022/02/25 05:58:25;;;;;;;8.27;4.30;;;;;;;;;;5074519;28;20478;-75
2022/02/25 06:00:51;;;;;;;9.10;4.65;;;;;;;;;;5074636;28;20511;-75
2022/02/25 06:03:17;;;;;;;12.70;4.35;;;;;;;;;;5073786;28;20515;-75
2022/02/25 06:05:43;;;;;;;5.60;3.90;;;;;;;;;;5056370;28;20115;-75
2022/02/25 06:08:08;;;;;;;6.82;3.80;;;;;;;;;;5074623;28;20398;-75
2022/02/25 06:10:34;;;;;;;5.93;3.17;;;;;;;;;;5056514;28;20056;-76
2022/02/25 06:13:00;;;;;;;4.82;3.03;;;;;;;;;;5073480;28;20020;-75
2022/02/25 06:15:27;;;;;;;6.05;3.17;;;;;;;;;;5055965;28;20032;-76
2022/02/25 06:17:53;;;;;;;7.05;3.58;;;;;;;;;;5074190;28;20025;-76
2022/02/25 06:20:20;;;;;;;8.27;3.50;;;;;;;;;;5074318;28;20059;-75
2022/02/25 06:22:46;;;;;;;6.40;3.88;;;;;;;;;;5072645;28;20023;-75
2022/02/25 06:25:13;;;;;;;7.72;3.25;;;;;;;;;;5055965;28;20505;-75
2022/02/25 06:27:39;;;;;;;4.88;3.53;;;;;;;;;;5073978;28;20044;-76
2022/02/25 06:30:08;;;;;;;10.77;3.53;;;;;;;;;;5074041;28;20020;-75
2022/02/25 06:32:34;;;;;;;6.47;2.92;;;;;;;;;;5073904;28;20414;-75
2022/02/25 06:35:00;;;;;;;7.40;4.10;;;;;;;;;;5073294;28;20035;-75
2022/02/25 06:37:28;;;;;;;6.18;3.50;;;;;;;;;;5073841;28;20090;-75
2022/02/25 06:39:54;;;;;;;6.82;2.58;;;;;;;;;;5056115;28;20028;-75
2022/02/25 06:42:20;;;;;;;4.35;2.08;;;;;;;;;;5074064;28;20074;-74
2022/02/25 06:44:46;;;;;;;4.72;1.90;;;;;;;;;;5073949;28;20032;-75
2022/02/25 06:47:13;;;;;;;6.53;3.60;;;;;;;;;;5073510;28;20032;-74
2022/02/25 06:49:39;;;;;;;4.82;2.60;;;;;;;;;;5085478;28;20031;-75
2022/02/25 06:52:06;;;;;;;7.13;2.80;;;;;;;;;;5093688;28;20028;-75
2022/02/25 06:54:32;;;;;;;6.43;3.00;;;;;;;;;;5092800;28;20455;-76
2022/02/25 06:56:58;;;;;;;5.22;3.17;;;;;;;;;;5091667;28;20104;-74
2022/02/25 06:59:24;;;;;;;6.03;3.28;;;;;;;;;;5093234;28;20470;-75
2022/02/25 07:01:50;;;;;;;4.63;2.10;;;;;;;;;;5074924;28;20057;-75
2022/02/25 07:04:16;;;;;;;4.70;1.60;;;;;;;;;;5093703;28;20511;-76
2022/02/25 07:06:43;;;;;;;4.13;2.25;;;;;;;;;;5093535;28;20040;-75
2022/02/25 07:09:09;;;;;;;6.90;1.92;;;;;;;;;;5093297;28;20012;-74
2022/02/25 07:11:36;;;;;;;4.40;2.10;;;;;;;;;;5093826;28;20047;-75
2022/02/25 07:14:03;;;;;;;6.22;2.70;;;;;;;;;;5092883;28;20036;-75
2022/02/25 07:16:29;;;;;;;10.68;2.80;;;;;;;;;;5069372;28;20439;-76
2022/02/25 07:18:55;;;;;;;4.43;1.40;;;;;;;;;;5055201;28;20438;-75
2022/02/25 07:21:21;;;;;;;2.70;1.45;;;;;;;;;;5077182;28;20141;-75
2022/02/25 07:23:47;;;;;;;3.65;1.20;;;;;;;;;;5092569;28;20027;-75
2022/02/25 07:26:12;;;;;;;5.03;2.00;;;;;;;;;;5074319;28;20049;-75
2022/02/25 07:28:38;;;;;;;4.13;1.27;;;;;;;;;;5092911;28;20016;-75
2022/02/25 07:31:05;;;;;;;4.22;1.90;;;;;;;;;;5073881;28;20019;-75
2022/02/25 07:33:31;;;;;;;7.03;1.45;;;;;;;;;;5091753;28;20048;-75
2022/02/25 07:35:57;;;;;;;4.18;1.33;;;;;;;;;;5092523;28;20028;-76
2022/02/25 07:38:23;;;;;;;2.80;0.90;;;;;;;;;;5092629;28;20020;-75
2022/02/25 07:40:49;;;;;;;7.57;1.30;;;;;;;;;;5092813;28;20070;-74
2022/02/25 07:43:18;;;;;;;5.60;2.13;;;;;;;;;;5092046;28;20042;-76
2022/02/25 07:45:45;;;;;;;8.20;1.95;;;;;;;;;;5074466;28;20020;-76
2022/02/25 07:48:11;;;;;;;3.53;1.38;;;;;;;;;;5093362;28;20644;-76
2022/02/25 07:50:37;;;;;;;9.07;1.50;;;;;;;;;;5075942;28;20033;-76
2022/02/25 07:53:03;;;;;;;2.97;1.40;;;;;;;;;;5100998;28;20016;-72
2022/02/25 07:55:30;;;;;;;3.00;1.38;;;;;;;;;;5073134;28;20035;-75
2022/02/25 07:57:56;;;;;;;3.83;1.45;;;;;;;;;;5084901;28;20020;-71
2022/02/25 08:00:24;;;;;;;6.28;1.35;;;;;;;;;;5091809;28;20052;-73
2022/02/25 08:02:50;;;;;;;4.22;2.20;;;;;;;;;;5091929;28;20493;-72
2022/02/25 08:05:17;;;;;;;3.65;1.63;;;;;;;;;;5092195;28;20073;-73
2022/02/25 08:07:44;;;;;;;10.88;1.75;;;;;;;;;;5074271;28;20036;-73
2022/02/25 08:10:10;;;;;;;4.05;1.73;;;;;;;;;;5074518;28;20103;-73
2022/02/25 08:12:36;;;;;;;2.70;1.40;;;;;;;;;;5091939;28;20481;-72
2022/02/25 08:15:02;;;;;;;2.97;1.23;;;;;;;;;;5091774;28;20095;-73
2022/02/25 08:17:28;;;;;;;4.00;1.55;;;;;;;;;;5092039;28;20458;-72
2022/02/25 08:19:54;;;;;;;4.72;1.73;;;;;;;;;;5091981;28;20027;-72
2022/02/25 08:22:22;;;;;;;4.60;1.50;;;;;;;;;;5073927;28;20024;-73
2022/02/25 08:24:48;;;;;;;12.13;1.60;;;;;;;;;;5091416;28;20474;-72
2022/02/25 08:27:15;;;;;;;3.70;1.42;;;;;;;;;;5073433;28;20058;-73
2022/02/25 08:29:41;;;;;;;2.35;1.30;;;;;;;;;;5092207;28;20032;-73
2022/02/25 08:32:07;;;;;;;3.35;1.48;;;;;;;;;;5073895;28;20466;-72
2022/02/25 08:34:33;;;;;;;6.13;2.13;;;;;;;;;;5091416;28;20024;-72
2022/02/25 08:36:59;;;;;;;4.63;2.10;;;;;;;;;;5091779;28;20042;-73
2022/02/25 08:39:25;;;;;;;6.95;1.73;;;;;;;;;;5091608;28;20400;-73
2022/02/25 08:41:51;;;;;;;3.63;1.52;;;;;;;;;;5091779;28;20032;-73
2022/02/25 08:44:17;;;;;;;3.88;1.30;;;;;;;;;;5090564;28;20149;-72
2022/02/25 08:46:45;;;;;;;5.85;1.75;;;;;;;;;;5091863;28;20501;-72
2022/02/25 08:49:11;;;;;;;3.20;1.63;;;;;;;;;;5091765;28;20043;-72
2022/02/25 08:51:37;;;;;;;6.50;1.40;;;;;;;;;;5091671;28;20048;-72
2022/02/25 08:54:04;;;;;;;7.30;1.58;;;;;;;;;;5090809;28;20059;-73
2022/02/25 08:56:30;;;;;;;5.22;1.80;;;;;;;;;;5091620;28;20402;-71
2022/02/25 08:58:56;;;;;;;5.20;1.63;;;;;;;;;;5092035;28;20031;-71
2022/02/25 09:01:23;;;;;;;5.22;1.83;;;;;;;;;;5073410;28;20402;-71
2022/02/25 09:03:49;;;;;;;5.03;1.75;;;;;;;;;;5091495;28;20449;-72
2022/02/25 09:06:15;;;;;;;4.40;1.30;;;;;;;;;;5091322;28;20056;-72
2022/02/25 09:08:41;;;;;;;4.75;2.10;;;;;;;;;;5091158;28;20081;-72
2022/02/25 09:11:08;;;;;;;3.00;1.33;;;;;;;;;;5091574;28;20020;-73
2022/02/25 09:13:34;;;;;;;2.53;1.65;;;;;;;;;;5090774;28;20099;-73
2022/02/25 09:16:00;;;;;;;7.13;2.13;;;;;;;;;;5091551;28;20031;-72
2022/02/25 09:18:25;;;;;;;6.78;1.30;;;;;;;;;;5091774;28;20103;-72
2022/02/25 09:20:51;;;;;;;4.53;2.25;;;;;;;;;;5091651;28;20071;-72
2022/02/25 09:23:18;;;;;;;8.48;2.17;;;;;;;;;;5090480;28;20028;-72
2022/02/25 09:25:44;;;;;;;7.03;1.80;;;;;;;;;;5072914;28;20032;-72
2022/02/25 09:28:12;;;;;;;7.18;1.42;;;;;;;;;;5091161;28;20470;-72
2022/02/25 09:30:38;;;;;;;4.20;1.75;;;;;;;;;;5073271;28;20103;-72
2022/02/25 09:33:05;;;;;;;4.60;1.65;;;;;;;;;;5090607;28;20033;-71
2022/02/25 09:35:31;;;;;;;7.10;1.85;;;;;;;;;;5072838;28;20078;-72
2022/02/25 09:37:57;;;;;;;4.85;1.55;;;;;;;;;;5094471;22;20563;-72
2022/02/25 09:40:24;;;;;;;7.57;2.20;;;;;;;;;;5053102;28;20025;-70
2022/02/25 09:42:50;;;;;;;9.38;1.60;;;;;;;;;;5070614;28;20017;-71
2022/02/25 09:45:17;;;;;;;5.65;2.13;;;;;;;;;;5071247;28;20024;-69
2022/02/25 09:47:44;;;;;;;7.68;1.70;;;;;;;;;;5070891;28;20107;-72
2022/02/25 09:50:11;;;;;;;5.00;1.52;;;;;;;;;;5071070;28;20025;-74
2022/02/25 09:52:38;;;;;;;2.28;0.90;;;;;;;;;;5071184;28;20024;-72
2022/02/25 09:55:27;;;;;;;5.15;1.38;;;;;;;;;;5052454;28;20032;-71
2022/02/25 09:57:54;;;;;;;3.90;1.35;;;;;;;;;;5061645;28;20121;-72
2022/02/25 10:00:20;;;;;;;5.13;1.20;;;;;;;;;;5074364;28;20469;-73
2022/02/25 10:02:48;;;;;;;7.18;1.73;;;;;;;;;;5073793;28;20482;-72
2022/02/25 10:05:19;;;;;;;10.25;1.67;;;;;;;;;;5074082;28;20068;-69
2022/02/25 10:07:45;;;;;;;6.78;1.77;;;;;;;;;;5056484;28;20024;-72
2022/02/25 10:10:12;;;;;;;6.03;1.10;;;;;;;;;;5056841;28;20036;-72
2022/02/25 10:12:40;;;;;;;5.97;1.30;;;;;;;;;;5074326;28;20109;-73
2022/02/25 10:15:09;;;;;;;7.00;1.63;;;;;;;;;;5074107;28;20086;-73
2022/02/25 10:17:37;;;;;;;4.20;1.05;;;;;;;;;;5055961;28;20025;-71
2022/02/25 10:20:05;;;;;;;5.70;1.70;;;;;;;;;;5074244;28;20082;-71
2022/02/25 10:22:36;;;;;;;1.85;1.15;;;;;;;;;;5073941;28;20033;-72
2022/02/25 10:25:05;;;;;;;5.03;1.90;;;;;;;;;;5073925;28;20119;-72
2022/02/25 10:27:38;;;;;;;6.55;2.35;;;;;;;;;;5073699;28;20027;-71
2022/02/25 10:30:06;;;;;;;4.38;1.00;;;;;;;;;;5074470;28;20028;-73
2022/02/25 10:32:37;;;;;;;6.28;1.98;;;;;;;;;;5056102;28;20478;-73
2022/02/25 10:35:21;;;;;;;4.38;1.23;;;;;;;;;;5073750;28;20020;-73
2022/02/25 10:38:00;;;;;;;4.65;1.60;;;;;;;;;;5073424;28;20036;-72
2022/02/25 10:40:26;;;;;;;6.88;2.38;;;;;;;;;;5056144;28;20421;-71
2022/02/25 10:42:55;;;;;;;5.57;2.20;;;;;;;;;;5073358;28;20423;-73
2022/02/25 10:45:36;;;;;;;6.43;1.52;;;;;;;;;;5073896;28;20024;-71
2022/02/25 10:48:07;;;;;;;4.35;1.45;;;;;;;;;;5074452;28;20025;-71
2022/02/25 10:50:53;;;;;;;3.78;1.80;;;;;;;;;;5056334;28;20052;-71
2022/02/25 10:53:32;;;;;;;6.60;1.58;;;;;;;;;;5058948;28;20029;-73
2022/02/25 10:56:17;;;;;;;3.55;1.20;;;;;;;;;;5073490;28;20401;-71
2022/02/25 10:58:44;;;;;;;7.55;2.15;;;;;;;;;;5073607;28;20108;-70
2022/02/25 11:01:13;;;;;;;7.45;1.77;;;;;;;;;;5073365;28;20024;-72
2022/02/25 11:03:40;;;;;;;4.80;1.33;;;;;;;;;;5072647;28;20772;-73
2022/02/25 11:06:12;;;;;;;3.90;1.38;;;;;;;;;;5073285;28;20056;-74
2022/02/25 11:08:39;;;;;;;9.15;2.75;;;;;;;;;;5072696;28;20044;-72
2022/02/25 11:11:06;;;;;;;4.18;1.95;;;;;;;;;;5072892;28;20095;-72
2022/02/25 11:13:32;;;;;;;5.30;1.52;;;;;;;;;;5072287;28;20094;-69
2022/02/25 11:15:58;;;;;;;4.18;1.55;;;;;;;;;;5072840;28;20021;-73
2022/02/25 11:18:24;;;;;;;6.60;1.88;;;;;;;;;;5073056;28;20013;-75
2022/02/25 11:20:51;;;;;;;4.82;1.35;;;;;;;;;;5073188;28;20074;-74
2022/02/25 11:23:18;;;;;;;6.50;2.03;;;;;;;;;;5072138;28;20532;-73
2022/02/25 11:25:48;;;;;;;6.53;1.60;;;;;;;;;;5072757;28;20033;-70
2022/02/25 11:28:15;;;;;;;6.43;1.83;;;;;;;;;;5072890;28;20429;-71
2022/02/25 11:30:41;;;;;;;6.28;2.00;;;;;;;;;;5073224;28;20032;-73
2022/02/25 11:33:11;;;;;;;7.57;1.48;;;;;;;;;;5071890;28;20034;-73
2022/02/25 11:35:47;;;;;;;10.32;2.33;;;;;;;;;;5072444;28;20036;-72
2022/02/25 11:38:13;;;;;;;3.92;0.93;;;;;;;;;;5072658;28;20169;-72
2022/02/25 11:40:50;;;;;;;5.32;1.33;;;;;;;;;;5072343;28;20577;-72
2022/02/25 11:43:16;;;;;;;6.50;1.73;;;;;;;;;;5071802;28;20025;-70
2022/02/25 11:45:50;;;;;;;2.03;1.23;;;;;;;;;;5072657;28;20021;-71
2022/02/25 11:48:22;;;;;;;3.45;1.30;;;;;;;;;;5072622;28;20036;-73
2022/02/25 11:50:50;;;;;;;7.63;1.52;;;;;;;;;;5072074;28;20016;-74
2022/02/25 11:53:20;;;;;;;5.00;1.77;;;;;;;;;;5071737;28;20027;-70
2022/02/25 11:55:46;;;;;;;2.47;1.08;;;;;;;;;;5072182;28;20066;-71
2022/02/25 11:58:33;;;;;;;5.40;1.17;;;;;;;;;;5072471;28;20021;-73
2022/02/25 12:01:11;;;;;;;3.55;1.23;;;;;;;;;;5054300;28;20017;-73
2022/02/25 12:03:58;;;;;;;4.80;1.10;;;;;;;;;;5071474;28;20033;-71
2022/02/25 12:06:50;;;;;;;6.32;1.23;;;;;;;;;;5071880;28;20021;-75
2022/02/25 12:09:35;;;;;;;3.85;1.13;;;;;;;;;;5071979;28;20024;-72
2022/02/25 12:12:23;;;;;;;6.13;1.10;;;;;;;;;;5072201;28;20047;-73
2022/02/25 12:14:59;;;;;;;5.60;0.88;;;;;;;;;;5071428;28;20027;-71
2022/02/25 12:17:35;;;;;;;2.47;0.90;;;;;;;;;;5071935;28;20508;-70
2022/02/25 12:20:07;;;;;;;3.28;1.35;;;;;;;;;;5053445;28;20028;-73
2022/02/25 12:23:02;;;;;;;7.43;1.35;;;;;;;;;;5071688;28;20021;-73
2022/02/25 12:25:40;;;;;;;2.58;1.10;;;;;;;;;;5042179;28;20029;-72
2022/02/25 12:28:33;;;;;;;4.03;1.48;;;;;;;;;;5071328;28;20528;-73
2022/02/25 12:30:59;;;;;;;3.63;1.05;;;;;;;;;;5050621;28;20036;-71
2022/02/25 12:33:36;;;;;;;5.20;1.05;;;;;;;;;;5070909;28;20017;-72
2022/02/25 12:36:22;;;;;;;6.45;2.17;;;;;;;;;;5071384;28;20413;-70
2022/02/25 12:38:50;;;;;;;7.43;1.30;;;;;;;;;;5057294;28;20480;-73
2022/02/25 12:41:18;;;;;;;5.05;1.35;;;;;;;;;;5053170;28;20036;-72
2022/02/25 12:43:58;;;;;;;4.90;1.52;;;;;;;;;;5070698;28;20052;-71
2022/02/25 12:46:25;;;;;;;6.30;1.60;;;;;;;;;;5071356;28;20035;-73
2022/02/25 12:48:52;;;;;;;5.97;1.40;;;;;;;;;;5071268;28;20021;-70
2022/02/25 12:51:19;;;;;;;4.53;0.90;;;;;;;;;;5053236;28;20028;-72
2022/02/25 12:53:52;;;;;;;7.28;1.17;;;;;;;;;;5070587;28;20067;-73
2022/02/25 12:56:20;;;;;;;6.30;1.30;;;;;;;;;;5053393;28;20027;-72
2022/02/25 12:58:47;;;;;;;3.47;1.17;;;;;;;;;;5071265;28;20119;-70
2022/02/25 13:01:18;;;;;;;5.78;1.55;;;;;;;;;;5070999;28;20055;-72
2022/02/25 13:03:44;;;;;;;4.03;1.30;;;;;;;;;;5070464;28;20024;-71
2022/02/25 13:06:10;;;;;;;10.20;1.00;;;;;;;;;;5070970;28;20035;-72
2022/02/25 13:08:36;;;;;;;7.03;2.25;;;;;;;;;;5070947;28;20118;-73
2022/02/25 13:11:06;;;;;;;6.28;1.60;;;;;;;;;;5071221;28;20028;-73
2022/02/25 13:13:33;;;;;;;1.37;0.93;;;;;;;;;;5070818;28;20037;-73
2022/02/25 13:16:17;;;;;;;4.97;1.60;;;;;;;;;;5053311;28;20764;-72
2022/02/25 13:18:43;;;;;;;5.43;1.83;;;;;;;;;;5070894;28;20028;-74
2022/02/25 13:21:10;;;;;;;4.20;1.17;;;;;;;;;;5070879;28;20082;-70
2022/02/25 13:23:38;;;;;;;5.47;1.40;;;;;;;;;;5070436;28;20036;-72
2022/02/25 13:26:05;;;;;;;4.65;1.38;;;;;;;;;;5070898;28;20028;-73
2022/02/25 13:28:31;;;;;;;1.48;1.17;;;;;;;;;;5071138;28;20390;-72
2022/02/25 13:30:57;;;;;;;5.68;1.20;;;;;;;;;;5072068;28;20029;-73
2022/02/25 13:33:24;;;;;;;5.00;1.25;;;;;;;;;;5073987;28;20099;-73
2022/02/25 13:35:52;;;;;;;4.95;1.20;;;;;;;;;;5073144;28;20024;-72
2022/02/25 13:38:21;;;;;;;3.90;1.23;;;;;;;;;;5074994;28;20427;-73
2022/02/25 13:40:49;;;;;;;2.55;0.95;;;;;;;;;;5074759;28;20063;-73
2022/02/25 13:43:18;;;;;;;5.40;1.25;;;;;;;;;;5056052;28;20085;-73
2022/02/25 13:45:45;;;;;;;3.17;1.10;;;;;;;;;;5074537;28;20028;-75
2022/02/25 13:53:44;;;;;;;2.78;1.00;;;;;;;;;;5073927;28;20098;-73
2022/02/25 13:56:11;;;;;;;5.20;1.23;;;;;;;;;;5076447;28;20033;-73
2022/02/25 13:58:37;;;;;;;4.80;1.10;;;;;;;;;;5094307;28;20028;-75
2022/02/25 14:01:02;;;;;;;5.28;1.15;;;;;;;;;;5094709;28;20028;-73
2022/02/25 14:03:41;;;;;;;5.63;1.25;;;;;;;;;;5073991;28;20389;-73
2022/02/25 14:06:22;;;;;;;2.70;1.38;;;;;;;;;;5079802;28;20024;-72
2022/02/25 14:08:48;;;;;;;5.93;1.17;;;;;;;;;;5087049;28;20490;-72
2022/02/25 14:11:28;;;;;;;4.05;1.33;;;;;;;;;;5083982;28;20029;-72
2022/02/25 14:13:54;;;;;;;4.18;1.15;;;;;;;;;;5074505;28;20051;-71
2022/02/25 14:16:25;;;;;;;3.88;1.38;;;;;;;;;;5093385;28;20083;-71
2022/02/25 14:18:51;;;;;;;3.43;1.33;;;;;;;;;;5093738;28;20034;-69
2022/02/25 14:21:27;;;;;;;5.97;1.30;;;;;;;;;;5084008;28;20259;-72
2022/02/25 14:23:54;;;;;;;4.07;1.70;;;;;;;;;;5073376;28;20074;-71
2022/02/25 14:26:32;;;;;;;4.60;1.25;;;;;;;;;;5073701;28;20028;-73
2022/02/25 14:28:58;;;;;;;3.90;1.13;;;;;;;;;;5053476;28;20025;-74
2022/02/25 14:31:27;;;;;;;3.35;1.20;;;;;;;;;;5053569;28;20039;-75
2022/02/25 14:33:53;;;;;;;3.72;1.20;;;;;;;;;;5052719;28;20027;-72
2022/02/25 14:36:21;;;;;;;3.60;1.60;;;;;;;;;;5053534;28;20041;-72
2022/02/25 14:38:49;;;;;;;3.28;0.82;;;;;;;;;;5080897;28;20394;-72
2022/02/25 14:41:16;;;;;;;3.33;1.17;;;;;;;;;;5094064;28;20020;-73
2022/02/25 14:43:42;;;;;;;4.03;0.95;;;;;;;;;;5092459;28;20080;-73
2022/02/25 14:46:09;;;;;;;4.00;1.08;;;;;;;;;;5075622;28;20577;-75
2022/02/25 14:48:35;;;;;;;4.00;0.80;;;;;;;;;;5093581;28;20026;-72
2022/02/25 14:51:07;;;;;;;4.63;1.13;;;;;;;;;;5093889;28;20020;-72
2022/02/25 14:53:33;;;;;;;6.07;1.58;;;;;;;;;;5093638;28;20016;-73
2022/02/25 14:55:59;;;;;;;5.55;1.45;;;;;;;;;;5093733;28;20089;-73